createdAt,value
2022-09-12T00:00:35.188Z,96374.31
2022-09-12T00:03:01.509Z,96375.72
2022-09-12T00:05:27.833Z,96379.47
2022-09-12T00:07:54.161Z,96381.44
2022-09-12T00:10:20.486Z,96373.94
2022-09-12T00:12:46.826Z,96379.28
2022-09-12T00:15:13.148Z,96382.44
2022-09-12T00:17:39.471Z,96377.31
2022-09-12T00:20:05.798Z,96374.75
2022-09-12T00:22:32.111Z,96362.31
2022-09-12T00:24:58.449Z,96368.00
2022-09-12T00:27:24.777Z,96372.97
2022-09-12T00:29:51.092Z,96375.28
2022-09-12T00:32:17.417Z,96370.31
2022-09-12T00:34:43.731Z,96370.41
2022-09-12T00:37:10.047Z,96367.75
2022-09-12T00:39:36.376Z,96366.03
2022-09-12T00:42:02.691Z,96372.09
2022-09-12T00:44:29.001Z,96366.03
2022-09-12T00:46:55.334Z,96363.69
2022-09-12T00:49:21.647Z,96362.50
2022-09-12T00:51:47.968Z,96358.75
2022-09-12T00:54:14.338Z,96353.81
2022-09-12T00:56:40.644Z,96354.41
2022-09-12T00:59:06.964Z,96349.06
2022-09-12T01:01:33.396Z,96344.09
2022-09-12T01:03:59.820Z,96343.72
2022-09-12T01:06:26.152Z,96344.31
2022-09-12T01:08:52.479Z,96347.69
2022-09-12T01:11:18.808Z,96340.78
2022-09-12T01:13:45.144Z,96343.94
2022-09-12T01:16:11.542Z,96340.19
2022-09-12T01:18:37.909Z,96342.25
2022-09-12T01:21:04.241Z,96341.94
2022-09-12T01:23:30.568Z,96345.31
2022-09-12T01:25:56.902Z,96343.31
2022-09-12T01:28:23.230Z,96337.78
2022-09-12T01:30:49.570Z,96338.41
2022-09-12T01:33:15.897Z,96338.00
2022-09-12T01:35:42.218Z,96328.91
2022-09-12T01:38:08.540Z,96330.78
2022-09-12T01:40:34.884Z,96325.75
2022-09-12T01:43:01.209Z,96322.38
2022-09-12T01:45:27.572Z,96325.94
2022-09-12T01:47:53.936Z,96329.50
2022-09-12T01:50:20.256Z,96323.78
2022-09-12T01:52:46.573Z,96324.16
2022-09-12T01:55:12.908Z,96323.22
2022-09-12T01:57:39.238Z,96320.28
2022-09-12T02:00:05.558Z,96322.00
2022-09-12T02:02:31.879Z,96329.50
2022-09-12T02:04:58.185Z,96322.97
2022-09-12T02:07:24.516Z,96324.06
2022-09-12T02:09:50.844Z,96326.94
2022-09-12T02:12:17.179Z,96322.50
2022-09-12T02:14:43.501Z,96317.69
2022-09-12T02:17:09.832Z,96318.47
2022-09-12T02:19:36.171Z,96319.06
2022-09-12T02:22:02.503Z,96320.66
2022-09-12T02:24:28.839Z,96316.97
2022-09-12T02:26:55.161Z,96313.94
2022-09-12T02:29:21.484Z,96314.50
2022-09-12T02:31:47.821Z,96311.47
2022-09-12T02:34:14.146Z,96304.84
2022-09-12T02:36:40.472Z,96312.53
2022-09-12T02:39:06.811Z,96305.25
2022-09-12T02:41:33.135Z,96309.97
2022-09-12T02:43:59.460Z,96312.16
2022-09-12T02:46:25.799Z,96317.72
2022-09-12T02:48:52.125Z,96304.50
2022-09-12T02:51:23.379Z,96308.63
2022-09-12T02:53:50.041Z,96313.59
2022-09-12T02:56:16.367Z,96313.19
2022-09-12T02:58:42.697Z,96312.19
2022-09-12T03:01:09.126Z,96318.91
2022-09-12T03:03:35.511Z,96315.75
2022-09-12T03:06:01.845Z,96316.91
2022-09-12T03:08:28.173Z,96314.56
2022-09-12T03:10:54.509Z,96309.72
2022-09-12T03:13:20.837Z,96312.75
2022-09-12T03:15:47.159Z,96302.91
2022-09-12T03:18:13.491Z,96308.25
2022-09-12T03:20:39.816Z,96303.28
2022-09-12T03:23:06.137Z,96304.84
2022-09-12T03:25:32.465Z,96301.47
2022-09-12T03:27:58.795Z,96305.41
2022-09-12T03:30:25.170Z,96306.31
2022-09-12T03:32:51.521Z,96311.59
2022-09-12T03:35:22.226Z,96306.81
2022-09-12T03:37:49.265Z,96311.53
2022-09-12T03:40:15.644Z,96306.22
2022-09-12T03:42:41.994Z,96308.38
2022-09-12T03:45:08.323Z,96307.31
2022-09-12T03:47:34.670Z,96312.16
2022-09-12T03:50:01.007Z,96305.44
2022-09-12T03:52:27.332Z,96313.00
2022-09-12T03:54:53.674Z,96308.63
2022-09-12T03:57:20.013Z,96310.78
2022-09-12T03:59:46.335Z,96307.25
2022-09-12T04:02:12.687Z,96303.88
2022-09-12T04:04:39.045Z,96307.66
2022-09-12T04:07:05.373Z,96309.22
2022-09-12T04:09:31.700Z,96308.13
2022-09-12T04:11:58.039Z,96304.50
2022-09-12T04:14:24.362Z,96304.00
2022-09-12T04:16:50.732Z,96301.47
2022-09-12T04:19:17.066Z,96303.44
2022-09-12T04:21:43.393Z,96305.00
2022-09-12T04:24:09.730Z,96308.56
2022-09-12T04:26:36.055Z,96313.91
2022-09-12T04:29:02.387Z,96305.38
2022-09-12T04:31:28.726Z,96304.81
2022-09-12T04:33:55.071Z,96301.41
2022-09-12T04:36:21.400Z,96306.81
2022-09-12T04:38:47.881Z,96306.94
2022-09-12T04:41:14.280Z,96306.59
2022-09-12T04:43:40.616Z,96317.06
2022-09-12T04:46:07.002Z,96308.31
2022-09-12T04:48:33.375Z,96312.44
2022-09-12T04:50:59.708Z,96311.22
2022-09-12T04:53:26.027Z,96311.84
2022-09-12T04:55:52.355Z,96302.53
2022-09-12T04:58:18.699Z,96305.28
2022-09-12T05:00:45.032Z,96304.78
2022-09-12T05:03:11.377Z,96308.72
2022-09-12T05:05:37.726Z,96308.91
2022-09-12T05:08:04.065Z,96309.41
2022-09-12T05:10:30.401Z,96306.25
2022-09-12T05:12:56.760Z,96306.75
2022-09-12T05:15:23.101Z,96318.50
2022-09-12T05:17:49.439Z,96315.06
2022-09-12T05:20:15.794Z,96309.72
2022-09-12T05:22:42.123Z,96308.59
2022-09-12T05:25:08.456Z,96313.16
2022-09-12T05:27:34.809Z,96318.03
2022-09-12T05:30:01.150Z,96315.34
2022-09-12T05:32:27.498Z,96314.13
2022-09-12T05:34:53.832Z,96320.09
2022-09-12T05:37:20.165Z,96327.59
2022-09-12T05:39:46.545Z,96329.66
2022-09-12T05:42:12.906Z,96336.44
2022-09-12T05:44:39.243Z,96333.91
2022-09-12T05:47:05.586Z,96333.13
2022-09-12T05:49:31.908Z,96322.16
2022-09-12T05:51:58.236Z,96330.47
2022-09-12T05:54:28.322Z,96331.22
2022-09-12T05:56:57.211Z,96328.75
2022-09-12T05:59:23.542Z,96327.94
2022-09-12T06:01:49.942Z,96337.44
2022-09-12T06:04:16.305Z,96332.72
2022-09-12T06:06:42.642Z,96337.91
2022-09-12T06:09:08.987Z,96335.25
2022-09-12T06:11:35.325Z,96333.66
2022-09-12T06:14:01.667Z,96338.41
2022-09-12T06:16:28.128Z,96343.63
2022-09-12T06:18:54.549Z,96340.94
2022-09-12T06:21:20.879Z,96340.34
2022-09-12T06:23:47.216Z,96338.13
2022-09-12T06:26:13.539Z,96338.75
2022-09-12T06:28:39.865Z,96340.34
2022-09-12T06:31:06.262Z,96343.84
2022-09-12T06:33:32.674Z,96344.91
2022-09-12T06:35:59.054Z,96344.47
2022-09-12T06:38:25.394Z,96349.81
2022-09-12T06:40:51.710Z,96346.97
2022-09-12T06:43:18.045Z,96354.69
2022-09-12T06:45:44.456Z,96345.28
2022-09-12T06:48:10.815Z,96345.59
2022-09-12T06:50:37.150Z,96347.97
2022-09-12T06:53:03.486Z,96352.41
2022-09-12T06:55:29.815Z,96358.06
2022-09-12T06:57:56.192Z,96342.56
2022-09-12T07:00:22.533Z,96343.78
2022-09-12T07:02:48.869Z,96350.69
2022-09-12T07:05:15.197Z,96349.66
2022-09-12T07:07:41.533Z,96357.19
2022-09-12T07:10:07.865Z,96346.94
2022-09-12T07:12:34.241Z,96350.88
2022-09-12T07:15:00.591Z,96347.09
2022-09-12T07:17:26.945Z,96356.22
2022-09-12T07:19:53.268Z,96345.53
2022-09-12T07:22:19.609Z,96345.22
2022-09-12T07:24:45.935Z,96340.53
2022-09-12T07:27:12.272Z,96337.56
2022-09-12T07:29:38.613Z,96339.72
2022-09-12T07:32:04.940Z,96336.78
2022-09-12T07:34:31.268Z,96334.56
2022-09-12T07:36:57.612Z,96338.84
2022-09-12T07:39:24.053Z,96344.66
2022-09-12T07:41:50.377Z,96343.56
2022-09-12T07:44:16.718Z,96337.91
2022-09-12T07:46:43.055Z,96340.28
2022-09-12T07:49:09.391Z,96345.00
2022-09-12T07:51:35.709Z,96340.44
2022-09-12T07:54:02.049Z,96342.81
2022-09-12T07:56:30.668Z,96337.44
2022-09-12T07:58:58.311Z,96337.16
2022-09-12T08:01:24.703Z,96342.19
2022-09-12T08:03:51.116Z,96345.84
2022-09-12T08:06:17.460Z,96340.19
2022-09-12T08:08:43.802Z,96341.44
2022-09-12T08:11:10.140Z,96346.28
2022-09-12T08:13:36.594Z,96346.28
2022-09-12T08:16:02.963Z,96345.66
2022-09-12T08:18:29.320Z,96355.59
2022-09-12T08:20:55.690Z,96354.50
2022-09-12T08:23:22.020Z,96354.19
2022-09-12T08:25:48.379Z,96355.75
2022-09-12T08:28:14.707Z,96349.78
2022-09-12T08:30:41.081Z,96350.56
2022-09-12T08:33:07.425Z,96351.06
2022-09-12T08:35:33.751Z,96353.75
2022-09-12T08:38:00.087Z,96356.09
2022-09-12T08:40:26.434Z,96349.16
2022-09-12T08:42:52.881Z,96357.66
2022-09-12T08:45:19.205Z,96363.03
2022-09-12T08:47:45.546Z,96359.72
2022-09-12T08:50:11.918Z,96357.66
2022-09-12T08:52:38.294Z,96356.25
2022-09-12T08:55:04.625Z,96377.34
2022-09-12T08:57:30.971Z,96365.56
2022-09-12T08:59:57.304Z,96366.19
2022-09-12T09:02:23.669Z,96365.56
2022-09-12T09:04:50.162Z,96359.41
2022-09-12T09:07:16.477Z,96359.59
2022-09-12T09:09:42.785Z,96353.44
2022-09-12T09:12:09.126Z,96354.25
2022-09-12T09:14:35.493Z,96353.13
2022-09-12T09:17:01.825Z,96353.03
2022-09-12T09:19:28.157Z,96345.91
2022-09-12T09:21:54.492Z,96356.28
2022-09-12T09:24:20.806Z,96354.59
2022-09-12T09:26:47.132Z,96352.72
2022-09-12T09:29:13.460Z,96349.84
2022-09-12T09:31:39.793Z,96343.13
2022-09-12T09:34:06.129Z,96338.56
2022-09-12T09:36:32.473Z,96340.72
2022-09-12T09:38:58.808Z,96354.59
2022-09-12T09:41:25.144Z,96357.75
2022-09-12T09:43:51.469Z,96355.88
2022-09-12T09:46:17.835Z,96347.06
2022-09-12T09:48:44.229Z,96341.72
2022-09-12T09:51:10.585Z,96344.38
2022-09-12T09:53:36.920Z,96333.38
2022-09-12T09:56:03.254Z,96338.41
2022-09-12T09:58:29.586Z,96338.41
2022-09-12T10:00:56.790Z,96334.19
2022-09-12T10:03:23.191Z,96336.22
2022-09-12T10:05:49.513Z,96341.56
2022-09-12T10:08:15.854Z,96330.88
2022-09-12T10:10:42.181Z,96327.72
2022-09-12T10:13:08.509Z,96326.59
2022-09-12T10:15:34.947Z,96322.06
2022-09-12T10:18:01.357Z,96322.06
2022-09-12T10:20:27.693Z,96322.06
2022-09-12T10:22:54.017Z,96312.94
2022-09-12T10:25:20.347Z,96317.50
2022-09-12T10:27:46.676Z,96319.06
2022-09-12T10:30:13.004Z,96320.63
2022-09-12T10:32:39.352Z,96312.94
2022-09-12T10:35:05.688Z,96316.41
2022-09-12T10:37:32.016Z,96319.56
2022-09-12T10:39:58.372Z,96314.53
2022-09-12T10:42:24.748Z,96314.22
2022-09-12T10:44:51.077Z,96312.16
2022-09-12T10:47:17.409Z,96313.72
2022-09-12T10:49:43.746Z,96308.38
2022-09-12T10:52:10.064Z,96301.47
2022-09-12T10:54:36.396Z,96299.25
2022-09-12T10:57:02.733Z,96304.59
2022-09-12T10:59:29.057Z,96299.25
2022-09-12T11:01:55.390Z,96303.03
2022-09-12T11:04:21.709Z,96300.03
2022-09-12T11:06:48.035Z,96297.03
2022-09-12T11:09:14.369Z,96286.97
2022-09-12T11:11:40.698Z,96292.31
2022-09-12T11:14:07.036Z,96304.59
2022-09-12T11:16:33.366Z,96293.88
2022-09-12T11:18:59.709Z,96300.84
2022-09-12T11:21:26.037Z,96293.88
2022-09-12T11:23:52.373Z,96294.69
2022-09-12T11:26:18.717Z,96298.63
2022-09-12T11:28:47.320Z,96292.63
2022-09-12T11:31:13.808Z,96290.91
2022-09-12T11:33:42.994Z,96288.41
2022-09-12T11:36:09.633Z,96287.91
2022-09-12T11:38:35.956Z,96280.19
2022-09-12T11:41:02.294Z,96287.47
2022-09-12T11:43:28.620Z,96279.13
2022-09-12T11:45:54.998Z,96275.66
2022-09-12T11:48:21.354Z,96272.66
2022-09-12T11:50:47.705Z,96273.47
2022-09-12T11:53:14.039Z,96271.88
2022-09-12T11:55:40.366Z,96266.50
2022-09-12T11:58:06.699Z,96267.63
2022-09-12T12:00:33.033Z,96255.06
2022-09-12T12:02:59.357Z,96255.81
2022-09-12T12:05:25.697Z,96255.19
2022-09-12T12:07:52.021Z,96256.78
2022-09-12T12:10:18.353Z,96254.56
2022-09-12T12:12:44.678Z,96251.44
2022-09-12T12:15:10.995Z,96256.16
2022-09-12T12:17:37.320Z,96248.13
2022-09-12T12:20:07.486Z,96248.13
2022-09-12T12:22:34.619Z,96243.22
2022-09-12T12:25:00.948Z,96244.81
2022-09-12T12:27:27.279Z,96243.72
2022-09-12T12:29:53.608Z,96234.75
2022-09-12T12:32:19.927Z,96241.03
2022-09-12T12:34:46.252Z,96237.25
2022-09-12T12:37:12.596Z,96239.16
2022-09-12T12:39:38.938Z,96225.78
2022-09-12T12:42:05.300Z,96231.91
2022-09-12T12:44:31.615Z,96227.34
2022-09-12T12:46:57.951Z,96227.03
2022-09-12T12:49:24.277Z,96236.94
2022-09-12T12:51:50.607Z,96235.06
2022-09-12T12:54:16.936Z,96228.59
2022-09-12T12:56:43.259Z,96223.72
2022-09-12T12:59:09.574Z,96214.59
2022-09-12T13:01:35.968Z,96207.69
2022-09-12T13:04:02.329Z,96210.34
2022-09-12T13:06:28.675Z,96206.56
2022-09-12T13:08:55.006Z,96209.72
2022-09-12T13:11:21.333Z,96209.25
2022-09-12T13:13:47.674Z,96200.13
2022-09-12T13:16:14.064Z,96203.25
2022-09-12T13:18:40.404Z,96200.56
2022-09-12T13:21:06.771Z,96200.13
2022-09-12T13:23:33.107Z,96194.16
2022-09-12T13:25:59.445Z,96191.91
2022-09-12T13:28:25.783Z,96195.06
2022-09-12T13:30:52.163Z,96187.38
2022-09-12T13:33:18.524Z,96188.16
2022-09-12T13:35:44.857Z,96190.53
2022-09-12T13:38:11.192Z,96192.06
2022-09-12T13:40:37.529Z,96183.56
2022-09-12T13:43:03.875Z,96173.03
2022-09-12T13:45:30.198Z,96171.47
2022-09-12T13:47:58.754Z,96173.66
2022-09-12T13:50:25.344Z,96165.81
2022-09-12T13:52:51.667Z,96169.88
2022-09-12T13:55:18.033Z,96162.97
2022-09-12T13:57:44.367Z,96160.75
2022-09-12T14:00:10.753Z,96161.41
2022-09-12T14:02:37.115Z,96160.59
2022-09-12T14:05:03.489Z,96154.47
2022-09-12T14:07:29.823Z,96149.28
2022-09-12T14:09:56.154Z,96147.25
2022-09-12T14:12:22.489Z,96142.66
2022-09-12T14:14:48.816Z,96142.53
2022-09-12T14:17:16.273Z,96140.19
2022-09-12T14:19:42.734Z,96141.75
2022-09-12T14:22:09.149Z,96139.38
2022-09-12T14:24:35.478Z,96130.88
2022-09-12T14:27:01.802Z,96121.31
2022-09-12T14:29:28.115Z,96125.09
2022-09-12T14:31:54.463Z,96125.09
2022-09-12T14:34:20.787Z,96129.97
2022-09-12T14:36:47.110Z,96122.41
2022-09-12T14:39:13.433Z,96128.09
2022-09-12T14:41:39.765Z,96128.41
2022-09-12T14:44:06.100Z,96113.91
2022-09-12T14:46:32.537Z,96119.25
2022-09-12T14:48:58.929Z,96121.94
2022-09-12T14:51:25.252Z,96117.69
2022-09-12T14:53:51.576Z,96115.34
2022-09-12T14:56:17.904Z,96114.53
2022-09-12T14:58:44.236Z,96121.47
2022-09-12T15:01:10.618Z,96117.69
2022-09-12T15:03:37.014Z,96116.09
2022-09-12T15:06:03.336Z,96105.41
2022-09-12T15:08:29.664Z,96112.19
2022-09-12T15:10:56.008Z,96111.22
2022-09-12T15:13:22.319Z,96110.75
2022-09-12T15:15:48.666Z,96115.34
2022-09-12T15:18:15.013Z,96105.41
2022-09-12T15:20:41.376Z,96114.53
2022-09-12T15:23:07.709Z,96103.06
2022-09-12T15:25:34.022Z,96098.50
2022-09-12T15:28:00.347Z,96107.63
2022-09-12T15:30:26.680Z,96113.75
2022-09-12T15:32:53.019Z,96104.63
2022-09-12T15:35:19.378Z,96103.84
2022-09-12T15:37:45.709Z,96105.41
2022-09-12T15:40:12.079Z,96099.59
2022-09-12T15:42:38.423Z,96096.94
2022-09-12T15:45:04.756Z,96095.34
2022-09-12T15:47:31.089Z,96093.00
2022-09-12T15:49:57.487Z,96097.69
2022-09-12T15:52:23.841Z,96087.00
2022-09-12T15:54:50.159Z,96095.81
2022-09-12T15:57:16.492Z,96096.94
2022-09-12T15:59:42.826Z,96096.13
2022-09-12T16:02:09.167Z,96093.78
2022-09-12T16:04:35.501Z,96089.06
2022-09-12T16:07:01.831Z,96090.00
2022-09-12T16:09:28.156Z,96083.09
2022-09-12T16:11:54.504Z,96086.06
2022-09-12T16:14:20.830Z,96078.53
2022-09-12T16:16:48.235Z,96073.03
2022-09-12T16:19:14.569Z,96070.81
2022-09-12T16:21:40.896Z,96073.19
2022-09-12T16:24:07.231Z,96078.22
2022-09-12T16:26:33.555Z,96072.06
2022-09-12T16:28:59.894Z,96071.75
2022-09-12T16:31:26.289Z,96070.97
2022-09-12T16:33:52.701Z,96067.84
2022-09-12T16:36:19.064Z,96070.50
2022-09-12T16:38:45.446Z,96067.03
2022-09-12T16:41:11.846Z,96061.69
2022-09-12T16:43:38.180Z,96056.34
2022-09-12T16:46:04.555Z,96057.91
2022-09-12T16:48:30.918Z,96052.09
2022-09-12T16:50:57.252Z,96054.78
2022-09-12T16:53:23.575Z,96048.63
2022-09-12T16:55:49.907Z,96048.97
2022-09-12T16:58:16.248Z,96057.44
2022-09-12T17:00:42.577Z,96048.63
2022-09-12T17:03:08.904Z,96047.06
2022-09-12T17:05:35.219Z,96048.63
2022-09-12T17:08:01.544Z,96033.38
2022-09-12T17:10:27.880Z,96040.13
2022-09-12T17:12:54.247Z,96041.72
2022-09-12T17:15:20.564Z,96047.84
2022-09-12T17:17:46.883Z,96047.41
2022-09-12T17:20:13.221Z,96045.47
2022-09-12T17:22:39.553Z,96051.16
2022-09-12T17:25:05.901Z,96039.38
2022-09-12T17:27:32.228Z,96044.72
2022-09-12T17:29:58.559Z,96040.94
2022-09-12T17:32:24.877Z,96048.47
2022-09-12T17:34:51.198Z,96054.31
2022-09-12T17:37:17.522Z,96050.06
2022-09-12T17:39:43.925Z,96058.84
2022-09-12T17:42:10.294Z,96062.31
2022-09-12T17:44:36.630Z,96054.16
2022-09-12T17:47:02.956Z,96053.81
2022-09-12T17:49:29.299Z,96047.84
2022-09-12T17:51:55.641Z,96046.75
2022-09-12T17:54:21.970Z,96044.25
2022-09-12T17:56:48.292Z,96049.13
2022-09-12T17:59:14.665Z,96039.22
2022-09-12T18:01:41.070Z,96047.25
2022-09-12T18:04:07.441Z,96050.06
2022-09-12T18:06:33.773Z,96042.69
2022-09-12T18:09:00.092Z,96040.28
2022-09-12T18:11:26.416Z,96052.25
2022-09-12T18:13:52.773Z,96054.78
2022-09-12T18:16:19.126Z,96055.41
2022-09-12T18:18:45.489Z,96054.94
2022-09-12T18:21:11.823Z,96063.25
2022-09-12T18:23:38.164Z,96068.13
2022-09-12T18:26:04.497Z,96064.50
2022-09-12T18:28:30.853Z,96069.19
2022-09-12T18:30:57.224Z,96071.56
2022-09-12T18:33:24.334Z,96073.91
2022-09-12T18:35:50.737Z,96071.72
2022-09-12T18:38:17.134Z,96075.66
2022-09-12T18:40:43.476Z,96072.78
2022-09-12T18:43:10.170Z,96085.72
2022-09-12T18:45:36.510Z,96083.97
2022-09-12T18:48:02.836Z,96084.63
2022-09-12T18:50:29.174Z,96090.25
2022-09-12T18:52:59.098Z,96092.28
2022-09-12T18:55:26.159Z,96094.84
2022-09-12T18:57:52.492Z,96101.31
2022-09-12T19:00:18.833Z,96100.94
2022-09-12T19:02:45.163Z,96087.25
2022-09-12T19:05:11.513Z,96086.28
2022-09-12T19:07:37.854Z,96093.22
2022-09-12T19:10:04.209Z,96091.31
2022-09-12T19:12:30.595Z,96097.81
2022-09-12T19:14:56.930Z,96092.91
2022-09-12T19:17:23.264Z,96095.91
2022-09-12T19:19:49.596Z,96094.31
2022-09-12T19:22:15.957Z,96092.75
2022-09-12T19:24:42.304Z,96093.88
2022-09-12T19:27:08.640Z,96100.63
2022-09-12T19:29:34.973Z,96109.44
2022-09-12T19:32:01.308Z,96107.25
2022-09-12T19:34:27.671Z,96105.34
2022-09-12T19:36:53.999Z,96107.25
2022-09-12T19:39:20.336Z,96105.66
2022-09-12T19:41:46.662Z,96099.66
2022-09-12T19:44:13.004Z,96103.47
2022-09-12T19:46:39.431Z,96104.25
2022-09-12T19:49:05.857Z,96098.09
2022-09-12T19:51:32.205Z,96099.66
2022-09-12T19:53:58.541Z,96096.56
2022-09-12T19:56:24.878Z,96105.03
2022-09-12T19:58:56.159Z,96111.50
2022-09-12T20:01:23.161Z,96117.31
2022-09-12T20:03:49.523Z,96102.81
2022-09-12T20:06:15.862Z,96106.13
2022-09-12T20:08:42.252Z,96110.38
2022-09-12T20:11:08.643Z,96111.97
2022-09-12T20:13:35.045Z,96122.19
2022-09-12T20:16:01.411Z,96119.50
2022-09-12T20:18:27.771Z,96123.44
2022-09-12T20:20:54.137Z,96118.88
2022-09-12T20:23:20.479Z,96115.72
2022-09-12T20:25:46.820Z,96114.16
2022-09-12T20:28:13.168Z,96111.16
2022-09-12T20:30:39.501Z,96113.38
2022-09-12T20:33:09.909Z,96110.38
2022-09-12T20:35:36.761Z,96109.59
2022-09-12T20:38:03.096Z,96105.84
2022-09-12T20:40:29.477Z,96100.31
2022-09-12T20:42:55.863Z,96104.09
2022-09-12T20:45:22.188Z,96106.16
2022-09-12T20:47:48.533Z,96108.84
2022-09-12T20:50:14.869Z,96100.66
2022-09-12T20:52:41.211Z,96107.28
2022-09-12T20:55:07.537Z,96114.53
2022-09-12T20:57:33.873Z,96104.78
2022-09-12T21:00:00.198Z,96112.19
2022-09-12T21:02:26.633Z,96114.22
2022-09-12T21:04:53.035Z,96114.53
2022-09-12T21:07:19.365Z,96113.75
2022-09-12T21:09:45.679Z,96110.00
2022-09-12T21:12:12.005Z,96112.19
2022-09-12T21:14:38.366Z,96102.44
2022-09-12T21:17:04.692Z,96118.00
2022-09-12T21:19:31.030Z,96107.19
2022-09-12T21:21:57.365Z,96114.88
2022-09-12T21:24:23.698Z,96107.94
2022-09-12T21:26:50.029Z,96108.75
2022-09-12T21:29:16.354Z,96108.91
2022-09-12T21:31:42.711Z,96095.69
2022-09-12T21:34:09.064Z,96097.38
2022-09-12T21:36:35.398Z,96097.88
2022-09-12T21:39:01.733Z,96097.88
2022-09-12T21:41:28.067Z,96098.50
2022-09-12T21:43:54.396Z,96089.34
2022-09-12T21:46:20.784Z,96096.59
2022-09-12T21:48:47.167Z,96103.84
2022-09-12T21:51:13.500Z,96115.16
2022-09-12T21:53:39.838Z,96119.88
2022-09-12T21:56:06.168Z,96118.31
2022-09-12T21:58:32.508Z,96117.34
2022-09-12T22:00:58.858Z,96114.38
2022-09-12T22:03:25.220Z,96120.50
2022-09-12T22:05:51.545Z,96105.72
2022-09-12T22:08:17.872Z,96109.53
2022-09-12T22:10:44.218Z,96109.34
2022-09-12T22:13:10.536Z,96101.94
2022-09-12T22:15:40.657Z,96093.31
2022-09-12T22:18:07.502Z,96097.41
2022-09-12T22:20:33.838Z,96100.38
2022-09-12T22:23:00.166Z,96099.47
2022-09-12T22:25:26.487Z,96093.47
2022-09-12T22:27:52.820Z,96096.78
2022-09-12T22:30:19.148Z,96093.47
2022-09-12T22:32:45.484Z,96093.94
2022-09-12T22:35:11.827Z,96089.69
2022-09-12T22:37:38.159Z,96090.47
2022-09-12T22:40:04.590Z,96098.97
2022-09-12T22:42:30.960Z,96099.47
2022-09-12T22:44:57.289Z,96088.75
2022-09-12T22:47:23.621Z,96090.63
2022-09-12T22:49:49.955Z,96085.59
2022-09-12T22:52:16.291Z,96078.06
2022-09-12T22:54:42.629Z,96078.84
2022-09-12T22:57:08.958Z,96084.50
2022-09-12T22:59:35.279Z,96080.25
2022-09-12T23:02:01.621Z,96088.44
2022-09-12T23:04:27.945Z,96076.47
2022-09-12T23:06:54.294Z,96082.63
2022-09-12T23:09:20.629Z,96081.19
2022-09-12T23:11:47.006Z,96087.66
2022-09-12T23:14:13.319Z,96084.03
2022-09-12T23:16:39.722Z,96078.06
2022-09-12T23:19:06.102Z,96092.38
2022-09-12T23:21:32.431Z,96096.94
2022-09-12T23:23:58.761Z,96096.63
2022-09-12T23:26:25.083Z,96097.41
2022-09-12T23:28:51.403Z,96098.50
2022-09-12T23:31:17.807Z,96096.00
2022-09-12T23:33:44.173Z,96103.53
2022-09-12T23:36:10.490Z,96106.69
2022-09-12T23:38:36.872Z,96099.75
2022-09-12T23:41:03.237Z,96106.06
2022-09-12T23:43:29.573Z,96107.94
2022-09-12T23:45:55.984Z,96107.00
2022-09-12T23:48:22.325Z,96095.03
2022-09-12T23:50:48.661Z,96100.88
2022-09-12T23:53:15.002Z,96098.81
2022-09-12T23:55:41.360Z,96102.59
2022-09-12T23:58:07.678Z,96105.72
